Time;durP1;ratioP1;P1;durP2;ratioP2;P2;SDS_P1;SDS_P2;PMS_P1;PMS_P2;Temp;Humidity;BMP_temperature;BMP_pressure;BME280_temperature;BME280_humidity;BME280_pressure;Samples;Min_cycle;Max_cycle;Signal;HPM_P1;HPM_P2
2022/09/08 00:02:18;;;;;;;2.80;1.23;;;18.50;68.10;;;;;;4147084;28;20061;-40
2022/09/08 00:04:40;;;;;;;5.65;1.52;;;18.60;68.30;;;;;;4155592;28;20491;-46
2022/09/08 00:07:04;;;;;;;3.85;1.02;;;18.60;68.10;;;;;;4140895;28;20045;-43
2022/09/08 00:09:27;;;;;;;3.10;1.58;;;18.70;67.10;;;;;;4157336;28;20048;-43
2022/09/08 00:11:51;;;;;;;2.50;1.20;;;18.70;66.40;;;;;;4145549;28;20083;-42
2022/09/08 00:14:14;;;;;;;2.83;1.13;;;18.80;66.00;;;;;;4161027;28;20056;-40
2022/09/08 00:16:40;;;;;;;2.53;1.10;;;18.80;65.70;;;;;;4154951;28;20106;-42
2022/09/08 00:19:04;;;;;;;5.68;1.40;;;18.80;65.60;;;;;;4150245;28;20056;-43
2022/09/08 00:21:28;;;;;;;6.85;1.58;;;18.80;65.60;;;;;;4151118;28;20052;-44
2022/09/08 00:23:50;;;;;;;;;;;18.90;65.50;;;;;;4159677;28;20101;-44
2022/09/08 00:26:12;;;;;;;2.88;1.17;;;18.90;65.40;;;;;;4146932;28;20626;-43
2022/09/08 00:28:35;;;;;;;2.42;1.20;;;18.90;65.30;;;;;;4156423;28;20412;-44
2022/09/08 00:30:59;;;;;;;2.20;1.15;;;18.90;65.30;;;;;;4157737;28;20461;-48
2022/09/08 00:33:23;;;;;;;6.57;1.33;;;19.00;65.30;;;;;;4154392;28;20063;-43
2022/09/08 00:35:51;;;;;;;6.90;1.77;;;19.00;65.60;;;;;;4166366;28;20037;-50
2022/09/08 00:38:13;;;;;;;15.93;2.13;;;19.10;66.00;;;;;;4164344;28;20622;-44
2022/09/08 00:40:46;;;;;;;7.25;2.10;;;19.20;67.10;;;;;;4162969;28;20959;-47
2022/09/08 00:43:08;;;;;;;8.50;1.67;;;19.20;67.30;;;;;;4159770;28;20048;-46
2022/09/08 00:45:44;;;;;;;6.05;1.60;;;19.30;67.30;;;;;;4165623;28;20052;-50
2022/09/08 00:48:15;;;;;;;4.53;1.30;;;19.40;67.10;;;;;;4156759;28;20461;-49
2022/09/08 00:50:37;;;;;;;4.28;1.40;;;19.40;67.10;;;;;;4161627;28;20033;-49
2022/09/08 00:53:04;;;;;;;5.68;1.20;;;19.50;66.90;;;;;;4166338;28;20115;-50
2022/09/08 00:55:38;;;;;;;5.85;1.55;;;19.50;66.90;;;;;;4156487;28;20045;-49
2022/09/08 00:58:00;;;;;;;3.88;1.10;;;19.50;66.80;;;;;;4160976;28;20064;-45
2022/09/08 01:00:23;;;;;;;2.80;1.08;;;19.60;66.70;;;;;;4160546;28;20046;-43
2022/09/08 01:02:47;;;;;;;2.63;0.95;;;19.60;66.60;;;;;;4136439;28;20034;-50
2022/09/08 01:05:13;;;;;;;4.05;1.20;;;19.70;66.60;;;;;;4153769;28;20077;-47
2022/09/08 01:13:47;;;;;;;8.45;1.23;;;19.80;66.40;;;;;;4160684;28;20037;-45
2022/09/08 01:16:10;;;;;;;2.75;1.05;;;19.80;66.30;;;;;;4164938;28;20052;-48
2022/09/08 01:18:36;;;;;;;3.28;0.93;;;19.80;66.30;;;;;;4157529;28;20087;-50
2022/09/08 01:21:28;;;;;;;3.28;1.10;;;19.90;66.00;;;;;;4159689;28;20124;-47
2022/09/08 01:24:19;;;;;;;1.63;0.77;;;19.90;66.00;;;;;;4149164;28;20029;-48
2022/09/08 01:27:11;;;;;;;1.08;0.80;;;19.90;65.80;;;;;;4141113;28;20175;-47
2022/09/08 01:29:34;;;;;;;2.53;1.23;;;20.00;65.70;;;;;;4160861;28;20079;-46
2022/09/08 01:31:58;;;;;;;3.53;0.90;;;20.00;65.60;;;;;;4160363;28;20084;-49
2022/09/08 01:34:21;;;;;;;2.42;1.10;;;20.10;65.60;;;;;;4152564;28;20037;-45
2022/09/08 01:36:43;;;;;;;2.33;0.77;;;20.10;65.70;;;;;;4148255;28;20095;-46
2022/09/08 01:39:06;;;;;;;2.33;0.90;;;20.10;65.70;;;;;;4154436;28;20403;-49
2022/09/08 01:41:29;;;;;;;2.08;0.75;;;20.20;65.50;;;;;;4159036;28;20065;-45
2022/09/08 01:43:51;;;;;;;1.13;0.98;;;20.20;65.30;;;;;;4158673;28;20323;-48
2022/09/08 01:46:14;;;;;;;3.05;1.05;;;20.20;65.30;;;;;;4164674;28;20128;-47
2022/09/08 01:48:37;;;;;;;1.85;0.85;;;20.30;65.40;;;;;;4153371;28;20112;-47
2022/09/08 01:51:01;;;;;;;1.30;0.82;;;20.30;65.20;;;;;;4142502;28;20550;-44
2022/09/08 01:53:23;;;;;;;3.42;1.15;;;20.30;65.20;;;;;;4156788;28;20042;-46
2022/09/08 01:55:46;;;;;;;2.80;0.70;;;20.30;65.30;;;;;;4152512;28;20045;-46
2022/09/08 01:58:08;;;;;;;4.75;0.65;;;20.40;65.30;;;;;;4162274;28;20041;-45
2022/09/08 02:00:31;;;;;;;1.55;0.85;;;20.40;65.20;;;;;;4156861;28;20140;-49
2022/09/08 02:02:54;;;;;;;1.13;0.70;;;20.40;65.20;;;;;;4153606;28;20541;-50
2022/09/08 02:05:16;;;;;;;3.05;1.27;;;20.50;65.20;;;;;;4156776;28;20045;-50
2022/09/08 02:07:39;;;;;;;1.83;1.08;;;20.50;65.10;;;;;;4159241;28;20052;-50
2022/09/08 02:10:02;;;;;;;5.32;0.95;;;20.50;64.90;;;;;;4158825;28;20033;-45
2022/09/08 02:12:25;;;;;;;1.50;0.70;;;20.60;64.90;;;;;;4155924;28;20370;-44
2022/09/08 02:14:48;;;;;;;3.00;0.80;;;20.60;64.80;;;;;;4150337;28;20048;-47
2022/09/08 02:17:10;;;;;;;2.95;0.98;;;20.60;63.80;;;;;;4142995;28;20107;-45
2022/09/08 02:19:33;;;;;;;9.85;1.08;;;20.60;63.40;;;;;;4151942;28;20518;-43
2022/09/08 02:21:56;;;;;;;1.90;0.80;;;20.50;63.30;;;;;;4153242;28;20112;-43
2022/09/08 02:24:18;;;;;;;3.78;0.88;;;20.50;63.30;;;;;;4155152;28;20041;-44
2022/09/08 02:26:41;;;;;;;4.35;1.10;;;20.50;63.70;;;;;;4150677;28;20107;-47
2022/09/08 02:29:04;;;;;;;6.63;1.50;;;20.50;63.60;;;;;;4150861;28;20485;-44
2022/09/08 02:31:28;;;;;;;4.20;0.98;;;20.50;63.90;;;;;;4141826;28;21526;-48
2022/09/08 02:33:50;;;;;;;5.22;0.90;;;20.60;63.90;;;;;;4156369;28;20038;-47
2022/09/08 02:36:13;;;;;;;3.22;1.50;;;20.60;63.80;;;;;;4150843;28;20044;-45
2022/09/08 02:38:36;;;;;;;2.35;0.80;;;20.60;63.80;;;;;;4158128;28;20041;-48
2022/09/08 02:41:00;;;;;;;1.40;0.75;;;20.60;63.50;;;;;;4153679;28;20112;-51
2022/09/08 02:43:23;;;;;;;4.97;1.15;;;20.60;63.60;;;;;;4150483;28;20079;-45
2022/09/08 02:45:46;;;;;;;2.38;1.05;;;20.70;63.50;;;;;;4160518;28;20479;-48
2022/09/08 02:48:09;;;;;;;1.65;0.98;;;20.70;63.50;;;;;;4162517;28;20033;-45
2022/09/08 02:50:31;;;;;;;4.65;1.25;;;20.80;63.50;;;;;;4168413;28;20051;-46
2022/09/08 02:52:54;;;;;;;1.17;0.70;;;20.70;63.40;;;;;;4171798;28;20522;-47
2022/09/08 02:55:17;;;;;;;4.18;1.10;;;20.70;63.40;;;;;;4154150;28;20041;-47
2022/09/08 02:57:39;;;;;;;3.78;1.02;;;20.80;63.40;;;;;;4162158;28;20470;-50
2022/09/08 03:00:03;;;;;;;1.98;1.10;;;20.90;63.40;;;;;;4164330;28;20037;-48
2022/09/08 03:02:26;;;;;;;1.77;0.90;;;20.80;63.30;;;;;;4160338;28;20511;-46
2022/09/08 03:04:49;;;;;;;1.98;0.90;;;20.80;63.40;;;;;;4156906;28;20187;-48
2022/09/08 03:07:12;;;;;;;2.30;1.38;;;20.90;63.30;;;;;;4154639;28;20053;-49
2022/09/08 03:09:34;;;;;;;2.72;1.02;;;20.90;63.30;;;;;;4158431;28;20054;-49
2022/09/08 03:11:57;;;;;;;1.75;0.85;;;20.90;63.20;;;;;;4158919;28;20047;-51
2022/09/08 03:14:21;;;;;;;3.60;1.40;;;21.00;63.20;;;;;;4160256;28;20116;-48
2022/09/08 03:16:45;;;;;;;3.95;1.15;;;21.00;63.10;;;;;;4166785;28;20040;-51
2022/09/08 03:19:08;;;;;;;1.98;1.00;;;21.00;63.20;;;;;;4164495;28;20051;-48
2022/09/08 03:21:31;;;;;;;1.88;1.00;;;21.00;63.10;;;;;;4149301;28;20040;-52
2022/09/08 03:23:54;;;;;;;2.65;1.08;;;21.10;63.00;;;;;;4160286;28;20037;-47
2022/09/08 03:26:19;;;;;;;1.70;1.10;;;21.10;63.00;;;;;;4170183;28;20057;-49
2022/09/08 03:28:44;;;;;;;3.90;1.20;;;21.20;62.90;;;;;;4162620;28;20451;-47
2022/09/08 03:31:09;;;;;;;;;;;21.20;62.50;;;;;;4165872;28;20482;-48
2022/09/08 03:33:32;;;;;;;2.80;1.13;;;21.20;62.90;;;;;;4157507;28;19921;-45
2022/09/08 03:35:55;;;;;;;3.58;1.23;;;21.20;62.40;;;;;;4167212;28;20525;-44
2022/09/08 03:38:18;;;;;;;2.45;1.08;;;21.20;62.40;;;;;;4162626;28;20506;-45
2022/09/08 03:40:41;;;;;;;1.90;1.00;;;21.30;62.30;;;;;;4158950;28;20425;-48
2022/09/08 03:43:06;;;;;;;2.95;1.02;;;21.30;62.30;;;;;;4154259;28;20033;-48
2022/09/08 03:45:29;;;;;;;2.50;1.00;;;21.30;62.20;;;;;;4154243;28;20130;-49
2022/09/08 03:47:52;;;;;;;2.15;1.23;;;21.30;62.10;;;;;;4166460;28;20029;-44
2022/09/08 03:50:16;;;;;;;2.30;0.93;;;21.30;62.80;;;;;;4156259;28;20041;-48
2022/09/08 03:52:39;;;;;;;1.77;1.00;;;21.30;62.20;;;;;;4162016;28;20074;-46
2022/09/08 03:55:01;;;;;;;3.28;1.13;;;21.30;62.20;;;;;;4151707;28;20052;-50
2022/09/08 03:57:26;;;;;;;1.80;1.00;;;21.30;62.10;;;;;;4151992;28;20072;-48
2022/09/08 03:59:55;;;;;;;2.72;1.05;;;21.30;62.00;;;;;;4143741;28;20050;-47
2022/09/08 04:02:19;;;;;;;1.98;1.13;;;21.30;61.90;;;;;;4157998;28;20041;-52
2022/09/08 04:04:42;;;;;;;3.97;0.93;;;21.30;62.00;;;;;;4159518;28;20049;-49
2022/09/08 04:07:04;;;;;;;3.25;1.50;;;21.40;62.40;;;;;;4155964;28;20048;-50
2022/09/08 04:09:27;;;;;;;3.95;1.10;;;21.40;62.60;;;;;;4155614;28;20116;-50
2022/09/08 04:11:50;;;;;;;2.30;0.90;;;21.50;62.60;;;;;;4156262;28;20047;-46
2022/09/08 04:14:13;;;;;;;2.85;1.08;;;21.50;62.60;;;;;;4158969;28;20040;-54
2022/09/08 04:16:36;;;;;;;4.20;0.73;;;21.50;62.40;;;;;;4159913;28;20049;-52
2022/09/08 04:18:58;;;;;;;6.10;1.27;;;21.60;62.50;;;;;;4163051;28;20065;-58
2022/09/08 04:21:21;;;;;;;5.28;1.33;;;21.60;62.70;;;;;;4161042;28;20064;-54
2022/09/08 04:23:43;;;;;;;2.30;0.65;;;21.60;62.70;;;;;;4155131;28;20354;-51
2022/09/08 04:26:10;;;;;;;2.63;0.80;;;21.70;62.80;;;;;;4164933;28;20057;-57
2022/09/08 04:28:34;;;;;;;1.88;0.90;;;21.80;62.70;;;;;;4161620;28;20148;-54
2022/09/08 04:30:57;;;;;;;5.07;1.27;;;21.80;62.60;;;;;;4158617;28;20575;-54
2022/09/08 04:33:20;;;;;;;6.10;1.75;;;21.90;62.40;;;;;;4159419;28;20539;-57
2022/09/08 04:35:42;;;;;;;4.13;1.05;;;21.90;62.10;;;;;;4146887;28;20458;-54
2022/09/08 04:38:05;;;;;;;2.35;0.90;;;22.00;62.10;;;;;;4157466;28;20125;-56
2022/09/08 04:40:27;;;;;;;2.15;1.08;;;22.00;62.10;;;;;;4156101;28;20038;-54
2022/09/08 04:42:50;;;;;;;2.65;0.90;;;22.00;62.20;;;;;;4147297;28;20049;-48
2022/09/08 04:45:13;;;;;;;4.32;1.10;;;22.00;62.30;;;;;;4149199;28;20045;-49
2022/09/08 04:47:36;;;;;;;3.33;0.95;;;22.10;62.40;;;;;;4153277;28;20037;-52
2022/09/08 04:49:58;;;;;;;1.67;0.73;;;22.10;62.30;;;;;;4150706;28;20044;-52
2022/09/08 04:52:24;;;;;;;2.75;0.70;;;22.20;62.30;;;;;;4151442;28;20446;-49
2022/09/08 04:54:47;;;;;;;1.60;0.73;;;22.20;62.40;;;;;;4153556;28;20041;-52
2022/09/08 04:57:10;;;;;;;3.45;1.00;;;22.20;62.50;;;;;;4151636;28;20041;-51
2022/09/08 04:59:33;;;;;;;2.10;0.60;;;22.20;62.30;;;;;;4152985;28;20182;-52
2022/09/08 05:01:55;;;;;;;2.40;0.93;;;22.30;62.30;;;;;;4155832;28;20418;-55
2022/09/08 05:04:18;;;;;;;1.58;0.70;;;22.40;62.30;;;;;;4149199;28;20125;-53
2022/09/08 05:06:40;;;;;;;1.70;0.60;;;22.40;62.00;;;;;;4151919;28;20423;-50
2022/09/08 05:09:04;;;;;;;1.95;1.02;;;22.50;61.90;;;;;;4150026;28;20037;-53
2022/09/08 05:11:27;;;;;;;;;;;22.60;61.80;;;;;;4157479;28;20094;-57
2022/09/08 05:13:50;;;;;;;1.17;0.75;;;22.60;61.70;;;;;;4148561;28;19913;-48
2022/09/08 05:16:15;;;;;;;1.08;0.65;;;22.70;61.60;;;;;;4148862;28;20534;-53
2022/09/08 05:18:38;;;;;;;1.60;0.75;;;22.70;61.50;;;;;;4136962;28;20728;-55
2022/09/08 05:21:01;;;;;;;1.90;0.77;;;22.70;61.50;;;;;;4150608;28;20037;-55
2022/09/08 05:23:24;;;;;;;2.83;0.85;;;22.80;61.50;;;;;;4150568;28;20444;-55
2022/09/08 05:25:53;;;;;;;3.13;0.60;;;22.80;61.40;;;;;;4156043;28;20064;-52
2022/09/08 05:28:16;;;;;;;1.88;0.70;;;22.90;61.40;;;;;;4158922;28;20280;-52
2022/09/08 05:30:42;;;;;;;2.00;1.00;;;22.90;61.30;;;;;;4149590;28;20088;-56
2022/09/08 05:33:04;;;;;;;1.67;0.65;;;23.00;61.30;;;;;;4156425;28;20135;-53
2022/09/08 05:35:27;;;;;;;2.92;0.80;;;23.00;61.30;;;;;;4153862;28;20041;-53
2022/09/08 05:37:49;;;;;;;2.08;1.00;;;22.90;61.20;;;;;;4160458;28;20574;-57
2022/09/08 05:40:12;;;;;;;1.73;0.60;;;23.00;61.30;;;;;;4167101;28;20063;-56
2022/09/08 05:42:34;;;;;;;4.10;0.77;;;23.00;61.30;;;;;;4159560;28;20037;-54
2022/09/08 05:44:57;;;;;;;1.23;0.63;;;23.00;61.20;;;;;;4163314;28;20076;-58
2022/09/08 05:47:20;;;;;;;11.13;1.08;;;23.00;61.30;;;;;;4159589;28;20063;-58
2022/09/08 05:49:43;;;;;;;3.00;0.90;;;23.10;61.40;;;;;;4155277;28;20370;-58
2022/09/08 05:52:05;;;;;;;2.30;0.60;;;23.10;61.50;;;;;;4163610;28;20429;-55
2022/09/08 05:54:28;;;;;;;2.38;1.00;;;23.10;61.30;;;;;;4162419;28;20029;-55
2022/09/08 05:56:51;;;;;;;3.30;1.08;;;23.10;61.20;;;;;;4159809;28;20037;-58
2022/09/08 05:59:14;;;;;;;2.33;0.67;;;23.10;61.30;;;;;;4163027;28;20043;-56
2022/09/08 06:01:36;;;;;;;2.85;0.77;;;23.10;61.20;;;;;;4161665;28;20534;-58
2022/09/08 06:04:01;;;;;;;4.68;0.70;;;23.10;61.20;;;;;;4141521;28;20582;-53
2022/09/08 06:06:24;;;;;;;1.60;0.80;;;23.10;60.90;;;;;;4152160;28;20519;-56
2022/09/08 06:08:47;;;;;;;3.40;1.20;;;23.10;60.70;;;;;;4157796;28;20475;-54
2022/09/08 06:11:10;;;;;;;2.15;0.68;;;23.10;61.00;;;;;;4159687;28;20047;-56
2022/09/08 06:13:33;;;;;;;5.80;1.10;;;23.10;61.10;;;;;;4152830;28;20429;-58
2022/09/08 06:16:03;;;;;;;2.33;0.90;;;23.10;61.20;;;;;;4153756;28;20094;-51
2022/09/08 06:18:26;;;;;;;2.10;1.00;;;23.00;61.30;;;;;;4154020;28;20065;-54
2022/09/08 06:20:48;;;;;;;2.63;0.63;;;23.00;61.30;;;;;;4144887;28;20045;-56
2022/09/08 06:23:12;;;;;;;1.70;0.70;;;23.00;61.40;;;;;;4157569;28;20028;-55
2022/09/08 06:25:46;;;;;;;3.05;1.10;;;23.00;61.50;;;;;;4150779;28;20045;-56
2022/09/08 06:28:32;;;;;;;2.05;0.80;;;23.00;61.40;;;;;;4153207;28;20448;-57
2022/09/08 06:30:56;;;;;;;2.60;1.00;;;23.00;61.40;;;;;;4149012;28;20112;-58
2022/09/08 06:33:29;;;;;;;2.65;0.88;;;23.00;61.50;;;;;;4135540;28;20046;-54
2022/09/08 06:35:58;;;;;;;2.65;1.38;;;23.10;61.50;;;;;;4148163;28;20044;-59
2022/09/08 06:38:34;;;;;;;5.15;0.75;;;23.10;61.60;;;;;;4144901;28;20189;-56
2022/09/08 06:41:10;;;;;;;2.97;0.63;;;23.10;61.60;;;;;;4150042;28;20775;-55
2022/09/08 06:43:54;;;;;;;2.40;1.00;;;23.10;61.60;;;;;;4151384;28;20569;-57
2022/09/08 06:46:29;;;;;;;2.63;0.82;;;23.10;61.80;;;;;;4133692;28;20041;-51
2022/09/08 06:48:53;;;;;;;2.35;0.93;;;23.10;61.70;;;;;;4151933;28;20036;-58
2022/09/08 06:51:15;;;;;;;2.90;0.93;;;23.00;61.60;;;;;;4159949;28;20056;-57
2022/09/08 06:54:03;;;;;;;1.75;0.68;;;23.00;61.70;;;;;;4155865;28;20284;-58
2022/09/08 06:56:32;;;;;;;2.78;0.85;;;23.10;61.90;;;;;;4157885;28;20466;-58
2022/09/08 06:59:00;;;;;;;3.05;0.85;;;23.10;61.90;;;;;;4156161;28;20052;-54
2022/09/08 07:01:40;;;;;;;3.78;1.20;;;23.10;61.90;;;;;;4157519;28;20034;-51
2022/09/08 07:04:17;;;;;;;1.85;0.70;;;23.10;61.90;;;;;;4151531;28;20036;-52
2022/09/08 07:06:55;;;;;;;2.40;1.08;;;23.10;61.90;;;;;;4133102;28;20141;-55
2022/09/08 07:09:28;;;;;;;2.50;0.90;;;23.10;62.00;;;;;;4159250;28;20034;-52
2022/09/08 07:12:36;;;;;;;2.38;0.70;;;23.10;61.90;;;;;;4165155;28;20040;-52
2022/09/08 07:15:21;;;;;;;4.22;0.95;;;23.10;62.00;;;;;;4162582;28;20059;-58
2022/09/08 07:18:15;;;;;;;1.48;0.70;;;23.10;62.00;;;;;;4157990;28;20041;-51
2022/09/08 07:20:37;;;;;;;2.85;0.95;;;23.10;62.00;;;;;;4152097;28;20101;-55
2022/09/08 07:23:14;;;;;;;3.38;0.90;;;23.10;62.10;;;;;;4156793;28;20564;-52
2022/09/08 07:25:47;;;;;;;1.90;0.73;;;23.00;62.00;;;;;;4143003;28;20436;-52
2022/09/08 07:28:30;;;;;;;2.47;1.13;;;23.10;62.10;;;;;;4127407;28;20641;-49
2022/09/08 07:31:04;;;;;;;6.57;1.35;;;23.00;62.00;;;;;;4148072;28;20115;-48
2022/09/08 07:33:40;;;;;;;2.47;1.30;;;23.00;60.80;;;;;;4147371;28;20068;-48
2022/09/08 07:36:13;;;;;;;4.35;1.42;;;22.90;60.30;;;;;;4153800;28;20045;-53
2022/09/08 07:38:50;;;;;;;6.13;1.23;;;22.90;60.10;;;;;;4151935;28;20033;-44
2022/09/08 07:41:26;;;;;;;4.90;1.45;;;22.80;60.20;;;;;;4151928;28;20481;-49
2022/09/08 07:44:01;;;;;;;3.60;1.25;;;22.70;60.20;;;;;;4149830;28;20498;-50
2022/09/08 07:46:44;;;;;;;4.50;1.48;;;22.70;60.30;;;;;;4156182;28;20057;-47
2022/09/08 07:49:53;;;;;;;3.20;1.15;;;22.60;60.30;;;;;;4157074;28;20034;-47
2022/09/08 07:52:36;;;;;;;2.00;1.02;;;22.60;60.70;;;;;;4049993;29;20560;-48
2022/09/08 07:55:22;;;;;;;4.50;1.25;;;22.50;60.60;;;;;;4054364;29;20055;-49
2022/09/08 07:58:19;;;;;;;3.85;1.20;;;22.40;60.60;;;;;;4128098;28;20038;-50
2022/09/08 08:00:45;;;;;;;5.07;1.38;;;22.40;60.80;;;;;;4141432;28;20125;-45
2022/09/08 08:03:28;;;;;;;6.35;1.40;;;22.30;60.80;;;;;;4144815;28;20043;-50
2022/09/08 08:06:12;;;;;;;6.78;1.38;;;22.30;61.00;;;;;;4153371;28;20474;-48
2022/09/08 08:08:58;;;;;;;4.00;1.33;;;22.20;61.00;;;;;;4153900;28;20090;-45
2022/09/08 08:11:23;;;;;;;3.05;1.38;;;22.20;61.20;;;;;;4147775;28;20215;-43
2022/09/08 08:13:53;;;;;;;5.32;1.60;;;22.20;61.30;;;;;;4161203;28;20479;-45
2022/09/08 08:16:21;;;;;;;9.57;2.15;;;22.10;61.30;;;;;;4148647;28;20087;-40
2022/09/08 08:19:07;;;;;;;5.50;1.50;;;22.10;61.50;;;;;;4147591;28;20116;-42
2022/09/08 08:21:39;;;;;;;9.10;2.00;;;22.10;61.90;;;;;;4155615;28;20371;-42
2022/09/08 08:24:14;;;;;;;8.02;1.73;;;22.10;62.30;;;;;;4155751;28;20534;-45
2022/09/08 08:26:44;;;;;;;4.47;1.48;;;22.10;63.20;;;;;;4152817;28;20092;-46
2022/09/08 08:29:22;;;;;;;3.35;1.55;;;22.10;63.60;;;;;;4160206;28;20045;-41
2022/09/08 08:32:06;;;;;;;5.97;1.80;;;22.20;63.90;;;;;;4162529;28;20107;-47
2022/09/08 08:34:37;;;;;;;4.70;1.48;;;22.20;64.10;;;;;;4161083;28;20044;-41
2022/09/08 08:37:05;;;;;;;3.15;1.23;;;22.20;64.10;;;;;;4145018;28;20079;-44
2022/09/08 08:39:29;;;;;;;4.70;1.65;;;22.20;64.00;;;;;;4158940;28;20080;-42
2022/09/08 08:41:58;;;;;;;;;;;22.30;64.10;;;;;;4163974;28;20041;-45
2022/09/08 08:44:35;;;;;;;5.47;1.80;;;22.30;64.00;;;;;;4163780;28;20317;-41
2022/09/08 08:47:30;;;;;;;6.47;2.13;;;22.30;64.00;;;;;;4160033;28;20146;-45
2022/09/08 08:49:52;;;;;;;;;;;22.30;64.10;;;;;;4161009;28;20030;-45
2022/09/08 08:52:40;;;;;;;10.90;2.50;;;22.30;64.00;;;;;;4161495;28;19919;-46
2022/09/08 08:55:27;;;;;;;5.25;2.10;;;22.40;63.90;;;;;;4153047;28;20124;-46
2022/09/08 08:57:59;;;;;;;5.35;2.25;;;22.40;63.90;;;;;;4146659;28;20058;-41
2022/09/08 09:00:24;;;;;;;10.05;2.78;;;22.40;63.90;;;;;;4140937;28;20050;-44
2022/09/08 09:03:04;;;;;;;20.00;2.67;;;22.40;63.80;;;;;;4141391;28;20261;-43
2022/09/08 09:05:52;;;;;;;6.75;2.20;;;22.30;63.70;;;;;;4141704;28;20057;-45
2022/09/08 09:08:39;;;;;;;3.80;2.22;;;22.30;63.80;;;;;;4144361;28;20034;-44
2022/09/08 09:11:22;;;;;;;9.35;2.75;;;22.40;63.90;;;;;;4144511;28;20037;-46
2022/09/08 09:13:48;;;;;;;7.88;2.42;;;22.30;63.80;;;;;;4143433;28;20529;-41
2022/09/08 09:16:31;;;;;;;6.45;2.30;;;22.30;63.80;;;;;;4143472;28;20064;-43
2022/09/08 09:19:12;;;;;;;5.63;1.98;;;22.30;63.80;;;;;;4138115;28;20038;-42
2022/09/08 09:22:13;;;;;;;4.43;1.92;;;22.30;63.80;;;;;;4141090;28;20033;-43
2022/09/08 09:24:51;;;;;;;7.18;2.20;;;22.40;63.90;;;;;;4137582;28;20618;-44
2022/09/08 09:27:26;;;;;;;16.98;2.72;;;22.40;63.90;;;;;;4139597;28;20068;-42
2022/09/08 09:30:18;;;;;;;8.30;2.88;;;22.40;64.00;;;;;;4140133;28;20029;-42
2022/09/08 09:32:59;;;;;;;8.32;2.40;;;22.30;64.00;;;;;;4139776;28;20130;-45
2022/09/08 09:35:48;;;;;;;6.60;2.30;;;22.30;64.20;;;;;;4135513;28;20036;-42
2022/09/08 09:38:38;;;;;;;6.30;2.38;;;22.30;64.30;;;;;;4143548;28;20272;-45
2022/09/08 09:41:44;;;;;;;6.93;2.20;;;22.40;64.30;;;;;;4138263;28;20510;-42
2022/09/08 09:44:18;;;;;;;6.20;2.22;;;22.40;64.20;;;;;;4100643;28;20822;-40
2022/09/08 09:46:51;;;;;;;5.28;2.05;;;22.40;64.10;;;;;;4139884;28;20047;-43
2022/09/08 09:49:28;;;;;;;5.25;1.90;;;22.40;64.20;;;;;;4145918;28;20511;-44
2022/09/08 09:52:06;;;;;;;6.43;2.05;;;22.30;64.20;;;;;;4153308;28;20040;-43
2022/09/08 09:54:47;;;;;;;8.50;2.40;;;22.30;64.30;;;;;;4147216;28;20037;-45
2022/09/08 09:57:36;;;;;;;6.55;2.50;;;22.40;63.90;;;;;;4145578;28;20049;-44
2022/09/08 10:00:19;;;;;;;4.45;2.20;;;22.30;63.60;;;;;;4148147;28;20117;-49
2022/09/08 10:03:33;;;;;;;4.70;1.90;;;22.30;63.70;;;;;;4150104;28;20112;-44
2022/09/08 10:06:40;;;;;;;8.40;2.92;;;22.30;63.90;;;;;;4104639;28;20567;-43
2022/09/08 10:09:23;;;;;;;13.65;2.45;;;22.30;63.90;;;;;;4068303;29;20056;-45
2022/09/08 10:12:04;;;;;;;4.90;1.98;;;22.30;64.00;;;;;;4064638;29;20699;-42
2022/09/08 10:15:00;;;;;;;3.85;2.03;;;22.30;64.00;;;;;;4136534;28;20043;-46
2022/09/08 10:17:44;;;;;;;7.50;2.70;;;22.30;64.10;;;;;;4146570;28;20049;-45
2022/09/08 10:20:30;;;;;;;17.87;3.03;;;22.30;64.20;;;;;;4153352;28;20045;-42
2022/09/08 10:23:14;;;;;;;8.93;2.60;;;22.30;64.30;;;;;;4159516;28;20087;-42
2022/09/08 10:25:55;;;;;;;5.50;2.50;;;22.30;64.50;;;;;;4150856;28;20049;-43
2022/09/08 10:28:29;;;;;;;6.13;1.90;;;22.30;64.50;;;;;;4152772;28;20501;-41
2022/09/08 10:31:36;;;;;;;4.40;1.70;;;22.30;64.50;;;;;;4149143;28;20033;-40
2022/09/08 10:34:34;;;;;;;5.10;1.92;;;22.30;64.60;;;;;;4136491;28;20558;-42
2022/09/08 10:37:16;;;;;;;3.67;1.70;;;22.20;64.70;;;;;;4136852;28;20042;-41
2022/09/08 10:39:57;;;;;;;11.13;1.92;;;22.20;64.70;;;;;;4136902;28;20096;-40
2022/09/08 10:42:58;;;;;;;4.32;1.90;;;22.20;64.90;;;;;;4137241;28;20396;-40
2022/09/08 10:45:38;;;;;;;4.28;2.08;;;22.20;64.80;;;;;;4134403;28;20053;-40
2022/09/08 10:48:29;;;;;;;3.10;1.67;;;22.20;64.90;;;;;;4136149;28;20042;-39
2022/09/08 10:50:54;;;;;;;6.47;1.70;;;22.20;64.90;;;;;;4135561;28;20030;-41
2022/09/08 10:54:02;;;;;;;6.15;1.98;;;22.20;64.90;;;;;;4134346;28;20057;-44
2022/09/08 10:56:28;;;;;;;4.07;2.30;;;22.20;65.30;;;;;;4137475;28;20041;-40
2022/09/08 10:59:30;;;;;;;3.75;1.70;;;22.20;65.40;;;;;;4136049;28;20045;-43
2022/09/08 11:02:08;;;;;;;5.72;2.20;;;22.10;65.30;;;;;;4139145;28;20041;-45
2022/09/08 11:05:15;;;;;;;4.78;1.73;;;22.10;65.60;;;;;;4137861;28;20041;-40
2022/09/08 11:08:03;;;;;;;4.22;1.83;;;22.10;65.70;;;;;;4114859;28;20353;-43
2022/09/08 11:10:35;;;;;;;5.47;1.77;;;22.10;65.60;;;;;;4137518;28;20069;-40
2022/09/08 11:13:20;;;;;;;7.22;1.65;;;22.10;65.70;;;;;;4135766;28;20500;-41
2022/09/08 11:16:04;;;;;;;4.70;1.80;;;22.10;65.70;;;;;;4137189;28;20496;-42
2022/09/08 11:18:35;;;;;;;5.65;1.45;;;22.10;65.70;;;;;;4138285;28;20045;-40
2022/09/08 11:21:04;;;;;;;3.50;1.60;;;22.10;65.70;;;;;;4137152;28;20061;-44
2022/09/08 11:23:31;;;;;;;4.22;1.45;;;22.10;65.90;;;;;;4137567;28;20089;-40
2022/09/08 11:26:00;;;;;;;3.13;1.27;;;22.10;65.70;;;;;;4138892;28;20476;-41
2022/09/08 11:28:50;;;;;;;4.22;1.38;;;22.00;65.70;;;;;;4139220;28;20049;-42
2022/09/08 11:31:35;;;;;;;11.07;1.50;;;22.00;65.50;;;;;;4137316;28;20046;-42
2022/09/08 11:34:16;;;;;;;5.82;2.15;;;22.00;65.90;;;;;;4133336;28;20057;-41
2022/09/08 11:36:51;;;;;;;5.68;1.55;;;22.00;66.00;;;;;;4134550;28;20030;-43
2022/09/08 11:39:13;;;;;;;;;;;22.00;66.00;;;;;;4140089;28;20030;-43
2022/09/08 11:41:49;;;;;;;7.07;1.75;;;22.00;66.00;;;;;;4134898;28;20296;-41
2022/09/08 11:44:21;;;;;;;5.30;1.80;;;21.90;66.10;;;;;;4137098;28;20048;-41
2022/09/08 11:46:58;;;;;;;8.32;1.92;;;22.00;66.10;;;;;;4131203;28;20046;-44
2022/09/08 11:49:52;;;;;;;2.65;1.30;;;21.90;66.00;;;;;;4132658;28;20036;-43
2022/09/08 11:52:59;;;;;;;2.72;1.50;;;21.90;66.00;;;;;;4130050;28;20066;-43
2022/09/08 11:55:52;;;;;;;3.08;1.42;;;21.90;66.10;;;;;;4109833;28;20177;-46
2022/09/08 11:58:36;;;;;;;5.45;1.63;;;21.90;66.30;;;;;;4132512;28;20066;-43
2022/09/08 12:01:07;;;;;;;2.28;1.35;;;21.90;66.20;;;;;;4131722;28;20026;-42
2022/09/08 12:03:54;;;;;;;4.07;1.38;;;21.90;66.20;;;;;;4128828;28;20053;-41
2022/09/08 12:06:35;;;;;;;2.80;1.60;;;21.90;66.20;;;;;;4130343;28;20053;-44
2022/09/08 12:09:16;;;;;;;3.03;1.40;;;21.90;66.20;;;;;;4129720;28;20114;-40
2022/09/08 12:11:56;;;;;;;2.30;1.48;;;21.90;66.30;;;;;;4129612;28;20034;-43
2022/09/08 12:14:41;;;;;;;3.53;1.63;;;21.90;66.30;;;;;;4130079;28;20030;-45
2022/09/08 12:17:33;;;;;;;;;;;21.90;66.40;;;;;;4125157;28;20077;-42
2022/09/08 12:20:15;;;;;;;3.42;1.88;;;21.90;66.40;;;;;;4132370;28;20288;-41
2022/09/08 12:23:10;;;;;;;5.95;1.58;;;21.90;66.70;;;;;;4128498;28;20034;-45
2022/09/08 12:25:38;;;;;;;2.05;1.23;;;21.80;66.60;;;;;;4128517;28;20069;-41
2022/09/08 12:28:24;;;;;;;6.68;1.95;;;21.80;66.70;;;;;;4133746;28;20038;-41
2022/09/08 12:31:01;;;;;;;8.98;1.85;;;21.80;66.60;;;;;;4129446;28;20041;-41
2022/09/08 12:33:45;;;;;;;5.40;1.40;;;21.80;66.50;;;;;;4129459;28;20527;-40
2022/09/08 12:36:44;;;;;;;3.42;1.48;;;21.80;66.20;;;;;;4131125;28;20042;-43
2022/09/08 12:39:23;;;;;;;11.52;2.78;;;21.80;66.00;;;;;;4128800;28;20038;-39
2022/09/08 12:41:55;;;;;;;4.00;1.70;;;21.70;66.50;;;;;;4131806;28;20133;-41
2022/09/08 12:44:30;;;;;;;6.40;1.88;;;21.80;67.40;;;;;;4128068;28;20117;-41
2022/09/08 12:47:11;;;;;;;6.75;2.05;;;21.70;66.60;;;;;;4131386;28;20496;-42
2022/09/08 12:49:48;;;;;;;3.42;1.70;;;21.70;66.50;;;;;;4127358;28;20328;-44
2022/09/08 12:52:41;;;;;;;7.60;1.60;;;21.70;66.30;;;;;;4135601;28;20065;-40
2022/09/08 12:55:19;;;;;;;2.28;1.40;;;21.70;66.30;;;;;;4133313;28;20499;-40
2022/09/08 12:57:54;;;;;;;2.63;1.60;;;21.70;66.20;;;;;;4130910;28;20539;-41
2022/09/08 13:00:19;;;;;;;;;;;21.70;66.20;;;;;;4131532;28;20022;-44
2022/09/08 13:03:19;;;;;;;2.53;1.02;;;21.70;66.40;;;;;;4127585;28;19921;-43
2022/09/08 13:05:41;;;;;;;4.75;1.80;;;21.70;66.40;;;;;;4127967;28;20061;-44
2022/09/08 13:08:48;;;;;;;4.82;1.20;;;21.70;66.50;;;;;;4133720;28;20069;-41
2022/09/08 13:11:34;;;;;;;3.60;1.17;;;21.60;66.50;;;;;;4129364;28;20113;-44
2022/09/08 13:14:10;;;;;;;10.93;1.60;;;21.60;66.70;;;;;;4132384;28;20490;-47
2022/09/08 13:16:57;;;;;;;6.88;1.83;;;21.60;66.80;;;;;;4133658;28;20038;-42
2022/09/08 13:19:32;;;;;;;3.13;0.95;;;21.70;67.00;;;;;;4131633;28;20045;-40
2022/09/08 13:22:07;;;;;;;3.63;1.17;;;21.60;66.80;;;;;;4130985;28;20039;-41